San Diego, California
Traffic Map
Current Weather Conditions
San Diego, California
Broken Clouds
Broken Clouds
69°
Feels Like: 69°
Wind Chill: 69° Ceiling: 1300
Heat Index: 69° Visibility: 10mi
Dew Point: 62° Wind: 0mph
Humidity: 78% Direction: ° ()
Pressure: 29.95in Gusts: 0mph
Raw Report DataKSAN 211251Z 00000KT 10SM FEW010 BKN013 21/17 A2995 RMK AO2 SLP143 T02060167
Traffic Incident Summary
Active as of:
Severity:
Category:
InformationThere was an issue retrieving the traffic information for this location. Please try a different location or try again shortly.
Advertisements
Track Severe Weather on mobile